Leicester, Massachusetts
Current Conditions -  °F | °C
As of 7:54 PM on Saturday 22 Nov 2014 (Local Time) from KORH Reporting Station
Clear Clear  
Wind Chill: 23°   Ceiling: Unl
Heat Index: 36°   Visibility: 10mi
Dew Point: 13°   Wind: 28mph
Humidity: 39%   Direction: 240°WSW
Pressure: 30.05"   Gusts: 38mph
Location:  42.25°N, 71.91°W
Report Text: KORH 230054Z 24024G33KT 10SM CLR 02/M11 A3005 RMK AO2 PK WND 24033/0046 SLP189 T00221106
Loading
Personal Weather Stations






























Interactive Weather Map New forecast layout! Learn more

10-Day Weather Forecast

Advertisements
Track Severe Weather on mobile